Terminal Aerodrome Forecast
Issued by NWS Bismarck, ND

Home | Current Version | Previous Version | Graphics & Text | Print | Product List | Glossary On
Versions: 1 2 3 4 5 6 7 8 9 10 11 12 13 14 15 16 17 18 19 20 21 22 23 24 25 26 27 28
091
FTUS43 KBIS 261834 AAA
TAFBIS
TAF AMD
KBIS 261834Z 2619/2718 03011KT P6SM -RA VCTS FEW040 BKN080CB
     FM262100 04008KT P6SM BKN200
     FM270000 07006KT P6SM VCTS BKN080CB
     FM270600 06007KT P6SM SCT100=

USA.gov is the U.S. government's official web portal to all federal, state and local government web resources and services.